Time;durP1;ratioP1;P1;durP2;ratioP2;P2;SDS_P1;SDS_P2;PMS_P1;PMS_P2;Temp;Humidity;BMP_temperature;BMP_pressure;BME280_temperature;BME280_humidity;BME280_pressure;Samples;Min_cycle;Max_cycle;Signal;HPM_P1;HPM_P2
2023/07/06 00:00:54;;;;;;;7.72;5.22;;;;;;;;;;5071453;28;20032;-61
2023/07/06 00:03:20;;;;;;;7.30;4.70;;;;;;;;;;5047966;28;20025;-61
2023/07/06 00:05:46;;;;;;;7.60;4.88;;;;;;;;;;5038550;28;20080;-61
2023/07/06 00:08:13;;;;;;;8.60;4.88;;;;;;;;;;5030269;28;20029;-61
2023/07/06 00:10:42;;;;;;;6.25;4.32;;;;;;;;;;5046120;28;20041;-61
2023/07/06 00:13:07;;;;;;;11.30;5.15;;;;;;;;;;5048839;28;20051;-61
2023/07/06 00:15:36;;;;;;;7.45;4.70;;;;;;;;;;5051800;28;20457;-62
2023/07/06 00:18:03;;;;;;;7.78;5.05;;;;;;;;;;5051083;28;20032;-61
2023/07/06 00:20:32;;;;;;;8.68;4.57;;;;;;;;;;5053399;28;20435;-61
2023/07/06 00:22:59;;;;;;;8.32;4.80;;;;;;;;;;5049228;28;20025;-61
2023/07/06 00:25:28;;;;;;;8.20;5.10;;;;;;;;;;5046998;28;20028;-61
2023/07/06 00:27:54;;;;;;;7.22;4.60;;;;;;;;;;5046450;28;20094;-61
2023/07/06 00:30:30;;;;;;;9.93;4.53;;;;;;;;;;5046064;28;20875;-60
2023/07/06 00:32:56;;;;;;;9.68;4.78;;;;;;;;;;5049524;28;20072;-60
2023/07/06 00:35:22;;;;;;;6.10;4.60;;;;;;;;;;5052007;28;20104;-60
2023/07/06 00:37:49;;;;;;;6.65;4.47;;;;;;;;;;5056272;28;20042;-61
2023/07/06 00:40:14;;;;;;;8.02;4.75;;;;;;;;;;5031681;28;20033;-61
2023/07/06 00:42:41;;;;;;;7.57;4.55;;;;;;;;;;5032268;28;20120;-60
2023/07/06 00:45:10;;;;;;;9.13;4.50;;;;;;;;;;5047768;28;20099;-60
2023/07/06 00:47:56;;;;;;;6.57;4.22;;;;;;;;;;5049384;28;20033;-60
2023/07/06 00:50:24;;;;;;;7.05;4.30;;;;;;;;;;5048253;28;20295;-61
2023/07/06 00:52:58;;;;;;;6.45;4.07;;;;;;;;;;5062408;28;20903;-60
2023/07/06 00:55:29;;;;;;;7.50;4.50;;;;;;;;;;5047767;28;20072;-61
2023/07/06 00:58:07;;;;;;;5.85;4.28;;;;;;;;;;5051818;28;20043;-60
2023/07/06 01:00:36;;;;;;;7.10;4.38;;;;;;;;;;5071321;28;20039;-60
2023/07/06 01:03:02;;;;;;;6.63;4.43;;;;;;;;;;5066573;28;20036;-61
2023/07/06 01:05:28;;;;;;;8.75;4.53;;;;;;;;;;5057537;28;20024;-60
2023/07/06 01:07:56;;;;;;;8.05;4.85;;;;;;;;;;5059775;28;20544;-60
2023/07/06 01:10:22;;;;;;;7.07;4.50;;;;;;;;;;5047471;28;20256;-61
2023/07/06 01:12:47;;;;;;;9.02;5.25;;;;;;;;;;5048423;28;20477;-60
2023/07/06 01:15:16;;;;;;;10.27;4.45;;;;;;;;;;5030629;28;20034;-60
2023/07/06 01:18:03;;;;;;;8.48;4.47;;;;;;;;;;5043926;28;20029;-61
2023/07/06 01:20:44;;;;;;;8.32;4.53;;;;;;;;;;5052704;28;20048;-61
2023/07/06 01:23:36;;;;;;;6.35;4.35;;;;;;;;;;5047855;28;20029;-61
2023/07/06 01:26:15;;;;;;;7.60;4.40;;;;;;;;;;5039132;28;20369;-62
2023/07/06 01:29:11;;;;;;;6.78;4.47;;;;;;;;;;5053177;28;20037;-61
2023/07/06 01:31:51;;;;;;;8.00;4.10;;;;;;;;;;5055236;28;20037;-60
2023/07/06 01:34:33;;;;;;;9.75;5.18;;;;;;;;;;5052338;28;20068;-61
2023/07/06 01:37:02;;;;;;;9.15;4.82;;;;;;;;;;5053177;28;20041;-60
2023/07/06 01:39:28;;;;;;;10.20;5.00;;;;;;;;;;5040560;28;20379;-60
2023/07/06 01:42:30;;;;;;;7.07;4.38;;;;;;;;;;5034579;28;20047;-61
2023/07/06 01:45:08;;;;;;;8.98;4.75;;;;;;;;;;5041442;28;20389;-60
2023/07/06 01:47:45;;;;;;;8.57;4.50;;;;;;;;;;5055167;28;20035;-60
2023/07/06 01:50:13;;;;;;;7.68;4.95;;;;;;;;;;5072386;28;20468;-61
2023/07/06 01:52:57;;;;;;;7.60;4.88;;;;;;;;;;5064320;28;20033;-61
2023/07/06 01:55:29;;;;;;;8.57;4.90;;;;;;;;;;5044578;28;20035;-62
2023/07/06 01:57:59;;;;;;;6.88;4.55;;;;;;;;;;5052851;28;20047;-60
2023/07/06 02:00:27;;;;;;;7.75;4.43;;;;;;;;;;5050742;28;20062;-61
2023/07/06 02:02:53;;;;;;;7.53;4.60;;;;;;;;;;5051632;28;20431;-60
2023/07/06 02:05:21;;;;;;;9.13;5.03;;;;;;;;;;5053496;28;20472;-61
2023/07/06 02:07:49;;;;;;;7.93;4.50;;;;;;;;;;5052670;28;20037;-60
2023/07/06 02:10:16;;;;;;;8.30;4.22;;;;;;;;;;5053363;28;20036;-60
2023/07/06 02:12:47;;;;;;;9.35;4.93;;;;;;;;;;5051069;28;20060;-60
2023/07/06 02:15:18;;;;;;;7.63;5.13;;;;;;;;;;5052929;28;20044;-60
2023/07/06 02:17:45;;;;;;;7.82;4.65;;;;;;;;;;5053319;28;20044;-60
2023/07/06 02:20:11;;;;;;;10.35;4.55;;;;;;;;;;5051824;28;20033;-60
2023/07/06 02:22:37;;;;;;;6.60;4.40;;;;;;;;;;5054505;28;20120;-62
2023/07/06 02:25:03;;;;;;;8.90;4.88;;;;;;;;;;5055798;28;20463;-63
2023/07/06 02:27:32;;;;;;;8.98;5.28;;;;;;;;;;5052951;28;20044;-61
2023/07/06 02:29:59;;;;;;;8.27;5.40;;;;;;;;;;5053740;28;20127;-61
2023/07/06 02:32:27;;;;;;;10.15;5.40;;;;;;;;;;5049565;28;20651;-61
2023/07/06 02:34:54;;;;;;;8.43;5.18;;;;;;;;;;5053764;28;20119;-61
2023/07/06 02:37:19;;;;;;;8.02;5.43;;;;;;;;;;5051484;28;20491;-61
2023/07/06 02:39:47;;;;;;;12.65;5.53;;;;;;;;;;5053726;28;20029;-61
2023/07/06 02:42:14;;;;;;;10.15;5.45;;;;;;;;;;5038718;28;20513;-60
2023/07/06 02:44:40;;;;;;;9.88;5.60;;;;;;;;;;5054729;28;20044;-61
2023/07/06 02:47:06;;;;;;;10.10;5.38;;;;;;;;;;5066151;28;20045;-60
2023/07/06 02:49:32;;;;;;;10.77;5.13;;;;;;;;;;5050744;28;20064;-59
2023/07/06 02:52:00;;;;;;;8.73;5.50;;;;;;;;;;5046652;28;20068;-61
2023/07/06 02:54:26;;;;;;;10.00;5.30;;;;;;;;;;5052216;28;20630;-60
2023/07/06 02:56:51;;;;;;;8.48;5.13;;;;;;;;;;5048232;28;20040;-62
2023/07/06 02:59:17;;;;;;;9.32;6.00;;;;;;;;;;5047534;28;20025;-62
2023/07/06 03:01:42;;;;;;;11.80;5.70;;;;;;;;;;5072152;28;20032;-61
2023/07/06 03:04:10;;;;;;;12.15;5.57;;;;;;;;;;5060170;28;20040;-61
2023/07/06 03:06:37;;;;;;;10.25;5.70;;;;;;;;;;5046379;28;20395;-61
2023/07/06 03:09:03;;;;;;;9.00;5.65;;;;;;;;;;5050484;28;20096;-60
2023/07/06 03:11:33;;;;;;;8.95;5.68;;;;;;;;;;5048793;28;20647;-60
2023/07/06 03:13:59;;;;;;;9.70;5.65;;;;;;;;;;5052821;28;20600;-60
2023/07/06 03:16:25;;;;;;;8.68;5.60;;;;;;;;;;5061965;28;20162;-61
2023/07/06 03:18:50;;;;;;;11.05;5.68;;;;;;;;;;5070652;28;20119;-60
2023/07/06 03:21:16;;;;;;;10.52;5.60;;;;;;;;;;5071959;28;20025;-61
2023/07/06 03:23:41;;;;;;;11.65;5.75;;;;;;;;;;5052684;28;20029;-60
2023/07/06 03:26:08;;;;;;;10.10;5.45;;;;;;;;;;5043491;28;20473;-61
2023/07/06 03:28:35;;;;;;;8.15;5.53;;;;;;;;;;5030635;28;20124;-60
2023/07/06 03:31:01;;;;;;;11.20;5.75;;;;;;;;;;5032721;28;20430;-60
2023/07/06 03:33:26;;;;;;;12.27;6.07;;;;;;;;;;5042673;28;20841;-60
2023/07/06 03:35:53;;;;;;;10.40;5.90;;;;;;;;;;5040793;28;20052;-60
2023/07/06 03:38:25;;;;;;;10.57;5.72;;;;;;;;;;5033797;28;20034;-61
2023/07/06 03:40:50;;;;;;;10.05;5.72;;;;;;;;;;5032409;28;20026;-60
2023/07/06 03:43:16;;;;;;;8.80;5.60;;;;;;;;;;5031323;28;20052;-61
2023/07/06 03:45:46;;;;;;;10.18;5.60;;;;;;;;;;5039965;28;20111;-61
2023/07/06 03:48:12;;;;;;;10.98;5.75;;;;;;;;;;5042474;28;20057;-62
2023/07/06 03:50:37;;;;;;;10.02;5.60;;;;;;;;;;5032401;28;20102;-60
2023/07/06 03:53:03;;;;;;;8.18;5.22;;;;;;;;;;5036426;28;20118;-61
2023/07/06 03:55:28;;;;;;;10.90;5.50;;;;;;;;;;5044947;28;20088;-60
2023/07/06 03:57:54;;;;;;;8.75;5.50;;;;;;;;;;5044775;28;20063;-61
2023/07/06 04:00:24;;;;;;;12.70;5.85;;;;;;;;;;5051283;28;20021;-62
2023/07/06 04:02:52;;;;;;;11.48;5.40;;;;;;;;;;5069264;28;20072;-61
2023/07/06 04:05:22;;;;;;;10.60;4.93;;;;;;;;;;5068356;28;20045;-61
2023/07/06 04:07:52;;;;;;;10.43;4.82;;;;;;;;;;5071992;28;20483;-61
2023/07/06 04:10:19;;;;;;;11.07;4.97;;;;;;;;;;5063074;28;20028;-61
2023/07/06 04:12:45;;;;;;;10.40;4.78;;;;;;;;;;5050943;28;20037;-61
2023/07/06 04:15:12;;;;;;;9.23;4.97;;;;;;;;;;5051042;28;20548;-61
2023/07/06 04:17:39;;;;;;;7.75;4.70;;;;;;;;;;5052004;28;20037;-60
2023/07/06 04:20:17;;;;;;;8.40;4.68;;;;;;;;;;5052237;28;20432;-61
2023/07/06 04:22:43;;;;;;;10.45;4.47;;;;;;;;;;5053174;28;20134;-60
2023/07/06 04:25:08;;;;;;;8.02;5.03;;;;;;;;;;5066656;28;20044;-60
2023/07/06 04:27:33;;;;;;;8.32;4.75;;;;;;;;;;5044958;28;20381;-61
2023/07/06 04:29:59;;;;;;;9.68;4.50;;;;;;;;;;5054785;28;20086;-61
2023/07/06 04:32:27;;;;;;;8.95;4.55;;;;;;;;;;5061503;28;20032;-61
2023/07/06 04:34:53;;;;;;;11.10;4.72;;;;;;;;;;5049124;28;20043;-61
2023/07/06 04:37:18;;;;;;;7.05;4.25;;;;;;;;;;5051568;28;20033;-61
2023/07/06 04:39:43;;;;;;;8.75;4.10;;;;;;;;;;5050260;28;20163;-61
2023/07/06 04:42:09;;;;;;;9.20;4.03;;;;;;;;;;5051334;28;20056;-60
2023/07/06 04:44:35;;;;;;;7.15;3.80;;;;;;;;;;5049348;28;20330;-60
2023/07/06 04:47:01;;;;;;;8.93;3.70;;;;;;;;;;5052071;28;20408;-60
2023/07/06 04:49:26;;;;;;;7.43;3.88;;;;;;;;;;5050697;28;20055;-60
2023/07/06 04:51:51;;;;;;;6.28;3.58;;;;;;;;;;5051720;28;20036;-60
2023/07/06 04:54:17;;;;;;;8.30;3.65;;;;;;;;;;5039945;28;20056;-62
2023/07/06 04:56:42;;;;;;;8.90;4.00;;;;;;;;;;5054451;28;20036;-61
2023/07/06 04:59:07;;;;;;;9.90;3.90;;;;;;;;;;5050321;28;20428;-61
2023/07/06 05:01:34;;;;;;;8.15;4.10;;;;;;;;;;5042171;28;20104;-61
2023/07/06 05:03:59;;;;;;;12.18;3.88;;;;;;;;;;5068676;28;20033;-61
2023/07/06 05:06:25;;;;;;;8.25;3.35;;;;;;;;;;5072952;28;20405;-61
2023/07/06 05:08:52;;;;;;;8.45;3.35;;;;;;;;;;5053201;28;20214;-61
2023/07/06 05:11:18;;;;;;;8.88;3.72;;;;;;;;;;5042561;28;20112;-62
2023/07/06 05:13:45;;;;;;;8.63;3.85;;;;;;;;;;5051338;28;20033;-61
2023/07/06 05:16:11;;;;;;;11.68;3.80;;;;;;;;;;5050023;28;20378;-62
2023/07/06 05:18:36;;;;;;;10.48;3.78;;;;;;;;;;5038651;28;20648;-61
2023/07/06 05:21:02;;;;;;;7.85;3.35;;;;;;;;;;5035358;28;20102;-62
2023/07/06 05:23:28;;;;;;;8.90;3.58;;;;;;;;;;5046993;28;20036;-60
2023/07/06 05:25:56;;;;;;;10.00;3.80;;;;;;;;;;5051510;28;20054;-60
2023/07/06 05:28:21;;;;;;;10.30;3.40;;;;;;;;;;5050179;28;20029;-61
2023/07/06 05:30:48;;;;;;;9.60;3.40;;;;;;;;;;5060074;28;20434;-60
2023/07/06 05:33:13;;;;;;;10.43;3.58;;;;;;;;;;5059600;28;20029;-60
2023/07/06 05:35:41;;;;;;;7.95;3.35;;;;;;;;;;5053306;28;20381;-61
2023/07/06 05:38:10;;;;;;;9.32;3.90;;;;;;;;;;5045293;28;20099;-60
2023/07/06 05:40:39;;;;;;;12.15;3.60;;;;;;;;;;5044395;28;20477;-63
2023/07/06 05:43:04;;;;;;;6.80;3.35;;;;;;;;;;5056460;28;20053;-62
2023/07/06 05:45:30;;;;;;;12.13;3.67;;;;;;;;;;5054008;28;20081;-63
2023/07/06 05:47:55;;;;;;;10.15;4.07;;;;;;;;;;5054165;28;20044;-61
2023/07/06 05:50:20;;;;;;;7.50;3.60;;;;;;;;;;5053827;28;20032;-63
2023/07/06 05:52:46;;;;;;;9.10;3.95;;;;;;;;;;5054467;28;20032;-62
2023/07/06 05:55:12;;;;;;;10.20;3.67;;;;;;;;;;5053796;28;20064;-62
2023/07/06 05:57:37;;;;;;;7.53;3.35;;;;;;;;;;5052348;28;20724;-62
2023/07/06 06:00:09;;;;;;;8.43;3.50;;;;;;;;;;5063079;28;20462;-61
2023/07/06 06:02:35;;;;;;;7.15;3.08;;;;;;;;;;5053023;28;20462;-61
2023/07/06 06:05:00;;;;;;;9.00;3.30;;;;;;;;;;5053992;28;20485;-61
2023/07/06 06:07:26;;;;;;;7.82;3.33;;;;;;;;;;5057806;28;20167;-63
2023/07/06 06:09:52;;;;;;;7.25;3.58;;;;;;;;;;5051785;28;20033;-62
2023/07/06 06:12:20;;;;;;;4.85;2.63;;;;;;;;;;5053425;28;20040;-67
2023/07/06 06:14:50;;;;;;;10.90;3.60;;;;;;;;;;5054036;28;20072;-62
2023/07/06 06:17:18;;;;;;;8.07;3.17;;;;;;;;;;5053991;28;20414;-68
2023/07/06 06:19:45;;;;;;;11.07;3.33;;;;;;;;;;5063547;28;20040;-61
2023/07/06 06:22:12;;;;;;;8.38;3.63;;;;;;;;;;5073839;28;20039;-60
2023/07/06 06:24:37;;;;;;;12.35;3.60;;;;;;;;;;5073284;28;20052;-62
2023/07/06 06:27:04;;;;;;;12.18;4.00;;;;;;;;;;5065257;28;20060;-62
2023/07/06 06:29:29;;;;;;;9.35;3.55;;;;;;;;;;5072812;28;20039;-62
2023/07/06 06:31:55;;;;;;;8.25;3.53;;;;;;;;;;5056609;28;20028;-62
2023/07/06 06:34:22;;;;;;;9.57;3.72;;;;;;;;;;5051666;28;20033;-66
2023/07/06 06:36:48;;;;;;;12.02;3.50;;;;;;;;;;5051921;28;20041;-60
2023/07/06 06:39:14;;;;;;;10.10;3.60;;;;;;;;;;5056268;28;20039;-61
2023/07/06 06:41:40;;;;;;;13.15;3.60;;;;;;;;;;5052503;28;20124;-61
2023/07/06 06:44:07;;;;;;;10.65;3.67;;;;;;;;;;5033611;28;20036;-61
2023/07/06 06:46:35;;;;;;;9.27;3.42;;;;;;;;;;5046077;28;20033;-63
2023/07/06 06:49:01;;;;;;;11.77;3.35;;;;;;;;;;5036658;28;20470;-63
2023/07/06 06:51:26;;;;;;;15.35;3.55;;;;;;;;;;5060466;28;20059;-61
2023/07/06 06:53:53;;;;;;;15.05;4.15;;;;;;;;;;5059895;28;20032;-61
2023/07/06 06:56:19;;;;;;;10.07;3.30;;;;;;;;;;5059639;28;20044;-67
2023/07/06 06:58:46;;;;;;;10.95;3.90;;;;;;;;;;5051352;28;20025;-61
2023/07/06 07:01:13;;;;;;;10.43;3.92;;;;;;;;;;5053030;28;20088;-61
2023/07/06 07:03:39;;;;;;;16.40;4.45;;;;;;;;;;5052096;28;20650;-61
2023/07/06 07:06:11;;;;;;;12.88;3.97;;;;;;;;;;5053193;28;20037;-60
2023/07/06 07:08:49;;;;;;;17.90;3.78;;;;;;;;;;5051902;28;20025;-63
2023/07/06 07:11:19;;;;;;;11.52;3.80;;;;;;;;;;5042473;28;20115;-61
2023/07/06 07:13:45;;;;;;;8.52;3.50;;;;;;;;;;5052420;28;20171;-62
2023/07/06 07:16:11;;;;;;;12.48;3.72;;;;;;;;;;5043108;28;20052;-61
2023/07/06 07:18:38;;;;;;;9.77;3.65;;;;;;;;;;5047780;28;20040;-62
2023/07/06 07:21:04;;;;;;;11.32;3.72;;;;;;;;;;5063312;28;20457;-61
2023/07/06 07:23:43;;;;;;;12.90;3.58;;;;;;;;;;5058388;28;20060;-61
2023/07/06 07:26:14;;;;;;;12.07;3.90;;;;;;;;;;5049941;28;20298;-62
2023/07/06 07:28:40;;;;;;;12.90;3.60;;;;;;;;;;5032084;28;20120;-61
2023/07/06 07:31:07;;;;;;;9.73;3.47;;;;;;;;;;5046796;28;20032;-60
2023/07/06 07:33:34;;;;;;;11.63;3.42;;;;;;;;;;5049751;28;20057;-61
2023/07/06 07:36:02;;;;;;;13.50;3.72;;;;;;;;;;5037264;28;20091;-61
2023/07/06 07:38:28;;;;;;;12.70;3.90;;;;;;;;;;5051782;28;20032;-61
2023/07/06 07:40:58;;;;;;;8.73;3.05;;;;;;;;;;5052269;28;20466;-60
2023/07/06 07:43:28;;;;;;;11.35;3.10;;;;;;;;;;5051880;28;20053;-64
2023/07/06 07:46:03;;;;;;;14.18;3.75;;;;;;;;;;5050627;28;20079;-62
2023/07/06 07:48:29;;;;;;;8.32;3.17;;;;;;;;;;5051710;28;20024;-62
2023/07/06 07:50:58;;;;;;;10.25;2.80;;;;;;;;;;5050976;28;20033;-60
2023/07/06 07:53:26;;;;;;;10.15;3.10;;;;;;;;;;5051558;28;20539;-64
2023/07/06 07:55:53;;;;;;;13.32;3.30;;;;;;;;;;5054652;28;20036;-61
2023/07/06 07:58:19;;;;;;;12.95;3.50;;;;;;;;;;5059268;28;20029;-61
2023/07/06 08:00:55;;;;;;;8.30;3.03;;;;;;;;;;5051545;28;20098;-61
2023/07/06 08:03:21;;;;;;;7.05;2.88;;;;;;;;;;5052078;28;20025;-62
2023/07/06 08:05:49;;;;;;;7.70;3.10;;;;;;;;;;5051872;28;20036;-61
2023/07/06 08:08:15;;;;;;;10.55;3.03;;;;;;;;;;5049348;28;20021;-61
2023/07/06 08:10:41;;;;;;;8.82;3.05;;;;;;;;;;5068547;28;20523;-60
2023/07/06 08:13:09;;;;;;;9.82;3.20;;;;;;;;;;5050273;28;20040;-61
2023/07/06 08:15:44;;;;;;;10.00;3.28;;;;;;;;;;5051122;28;20374;-60
2023/07/06 08:18:10;;;;;;;10.68;3.50;;;;;;;;;;5052070;28;20040;-62
2023/07/06 08:20:35;;;;;;;10.48;3.25;;;;;;;;;;5063500;28;20032;-62
2023/07/06 08:23:04;;;;;;;9.07;3.03;;;;;;;;;;5056341;28;20043;-62
2023/07/06 08:25:37;;;;;;;12.52;3.05;;;;;;;;;;5062144;28;20025;-60
2023/07/06 08:28:06;;;;;;;9.00;3.08;;;;;;;;;;5034234;28;20469;-62
2023/07/06 08:30:33;;;;;;;10.13;3.00;;;;;;;;;;5050776;28;20083;-62
2023/07/06 08:33:02;;;;;;;10.27;2.55;;;;;;;;;;5047374;28;20465;-60
2023/07/06 08:35:29;;;;;;;7.95;2.42;;;;;;;;;;5069144;28;20039;-61
2023/07/06 08:37:54;;;;;;;7.88;2.63;;;;;;;;;;5060013;28;20473;-61
2023/07/06 08:40:24;;;;;;;12.43;3.05;;;;;;;;;;5069862;28;20035;-64
2023/07/06 08:42:49;;;;;;;10.27;3.13;;;;;;;;;;5051265;28;20045;-61
2023/07/06 08:45:21;;;;;;;9.55;2.72;;;;;;;;;;5049931;28;20029;-59
2023/07/06 08:47:48;;;;;;;10.50;3.17;;;;;;;;;;5050918;28;20044;-60
2023/07/06 08:50:29;;;;;;;8.25;2.67;;;;;;;;;;5037197;28;20427;-61
2023/07/06 08:52:56;;;;;;;9.90;2.83;;;;;;;;;;5051515;28;20095;-61
2023/07/06 08:55:24;;;;;;;6.90;2.50;;;;;;;;;;5051317;28;20037;-60
2023/07/06 08:57:50;;;;;;;7.55;2.90;;;;;;;;;;5046484;28;20065;-60
2023/07/06 09:00:25;;;;;;;7.47;2.83;;;;;;;;;;5050305;28;20032;-60
2023/07/06 09:02:54;;;;;;;8.38;2.90;;;;;;;;;;5051508;28;20029;-61
2023/07/06 09:05:20;;;;;;;8.20;3.00;;;;;;;;;;5050868;28;20361;-62
2023/07/06 09:07:46;;;;;;;10.32;3.00;;;;;;;;;;5050314;28;20500;-62
2023/07/06 09:10:23;;;;;;;8.85;2.60;;;;;;;;;;5063417;28;20036;-62
2023/07/06 09:12:49;;;;;;;8.13;2.88;;;;;;;;;;5055352;28;20037;-61
2023/07/06 09:15:16;;;;;;;6.15;2.55;;;;;;;;;;5051366;28;20032;-62
2023/07/06 09:17:47;;;;;;;7.45;2.97;;;;;;;;;;5050679;28;20075;-61
2023/07/06 09:20:16;;;;;;;14.10;2.97;;;;;;;;;;5064443;28;20036;-63
2023/07/06 09:22:42;;;;;;;10.30;3.22;;;;;;;;;;5056894;28;20032;-62
2023/07/06 09:25:25;;;;;;;6.32;2.55;;;;;;;;;;5051171;28;20029;-62
2023/07/06 09:27:51;;;;;;;7.35;2.80;;;;;;;;;;5050940;28;20037;-62
2023/07/06 09:30:29;;;;;;;6.50;2.65;;;;;;;;;;5051183;28;20056;-62
2023/07/06 09:33:06;;;;;;;7.82;2.95;;;;;;;;;;5051026;28;20102;-60
2023/07/06 09:35:36;;;;;;;9.45;3.08;;;;;;;;;;5050369;28;20039;-61
2023/07/06 09:38:03;;;;;;;7.63;2.67;;;;;;;;;;5049565;28;20452;-61
2023/07/06 09:40:30;;;;;;;6.45;2.92;;;;;;;;;;5050542;28;20397;-62
2023/07/06 09:42:55;;;;;;;7.30;2.58;;;;;;;;;;5054266;28;20120;-61
2023/07/06 09:45:27;;;;;;;8.07;3.28;;;;;;;;;;5054543;28;20167;-61
2023/07/06 09:48:07;;;;;;;6.82;2.70;;;;;;;;;;5064017;28;20358;-62
2023/07/06 09:50:43;;;;;;;6.90;2.20;;;;;;;;;;5070392;28;20033;-62
2023/07/06 09:53:25;;;;;;;9.68;2.80;;;;;;;;;;5055756;28;20041;-62
2023/07/06 09:55:50;;;;;;;5.10;2.10;;;;;;;;;;5053915;28;20079;-63
2023/07/06 09:58:23;;;;;;;6.22;2.30;;;;;;;;;;5053005;28;20068;-61
2023/07/06 10:01:13;;;;;;;6.32;2.45;;;;;;;;;;5059124;28;20037;-61
2023/07/06 10:03:50;;;;;;;5.20;2.47;;;;;;;;;;5051392;28;20540;-61
2023/07/06 10:06:37;;;;;;;5.93;2.42;;;;;;;;;;5074137;28;20532;-60
2023/07/06 10:09:15;;;;;;;7.88;2.30;;;;;;;;;;5062625;28;20550;-61
2023/07/06 10:11:49;;;;;;;8.45;2.30;;;;;;;;;;5070256;28;20040;-61
2023/07/06 10:14:33;;;;;;;4.15;2.03;;;;;;;;;;5053179;28;20088;-60
2023/07/06 10:17:29;;;;;;;7.53;2.42;;;;;;;;;;5067722;28;20108;-60
2023/07/06 10:20:09;;;;;;;8.02;2.40;;;;;;;;;;5054007;28;20028;-59
2023/07/06 10:22:38;;;;;;;7.18;2.50;;;;;;;;;;5053175;28;20079;-59
2023/07/06 10:25:10;;;;;;;5.25;2.30;;;;;;;;;;5056140;28;20031;-60
2023/07/06 10:27:41;;;;;;;6.32;2.78;;;;;;;;;;5063062;28;20028;-59
2023/07/06 10:30:26;;;;;;;6.32;2.20;;;;;;;;;;5053998;28;20037;-60
2023/07/06 10:32:55;;;;;;;4.82;2.30;;;;;;;;;;5053143;28;20076;-59
2023/07/06 10:35:33;;;;;;;6.22;2.10;;;;;;;;;;5053589;28;20116;-62
2023/07/06 10:37:58;;;;;;;4.72;1.80;;;;;;;;;;5053510;28;20478;-62
2023/07/06 10:40:26;;;;;;;6.57;2.25;;;;;;;;;;5052378;28;20116;-61
2023/07/06 10:43:13;;;;;;;6.88;2.00;;;;;;;;;;5049971;28;20420;-60
2023/07/06 10:45:52;;;;;;;4.40;2.00;;;;;;;;;;5069759;28;20032;-60
2023/07/06 10:48:21;;;;;;;4.72;2.10;;;;;;;;;;5058880;28;20029;-59
2023/07/06 10:51:04;;;;;;;6.10;2.40;;;;;;;;;;5052212;28;20087;-60
2023/07/06 10:53:34;;;;;;;6.90;2.03;;;;;;;;;;5053194;28;20045;-65
2023/07/06 10:56:02;;;;;;;6.60;2.35;;;;;;;;;;5052421;28;20044;-61
2023/07/06 10:58:30;;;;;;;5.15;2.30;;;;;;;;;;5052516;28;20033;-62
2023/07/06 11:00:57;;;;;;;4.80;2.00;;;;;;;;;;5052998;28;20378;-61
2023/07/06 11:03:29;;;;;;;6.63;2.20;;;;;;;;;;5053254;28;20100;-62
2023/07/06 11:06:06;;;;;;;6.60;2.20;;;;;;;;;;5032776;28;20033;-62
2023/07/06 11:09:10;;;;;;;5.30;2.03;;;;;;;;;;5048172;28;20039;-63
2023/07/06 11:11:51;;;;;;;6.13;1.83;;;;;;;;;;5044838;28;20032;-64
2023/07/06 11:14:33;;;;;;;6.18;2.00;;;;;;;;;;5052156;28;20036;-61
2023/07/06 11:17:22;;;;;;;3.35;1.67;;;;;;;;;;5049725;28;20029;-61
2023/07/06 11:20:19;;;;;;;4.10;1.85;;;;;;;;;;5032162;28;20040;-59
2023/07/06 11:22:50;;;;;;;7.45;2.05;;;;;;;;;;5041946;28;20048;-60
2023/07/06 11:25:16;;;;;;;4.15;2.00;;;;;;;;;;5052785;28;20025;-61
2023/07/06 11:27:45;;;;;;;4.57;2.22;;;;;;;;;;5050613;28;20033;-64
2023/07/06 11:30:31;;;;;;;4.40;1.90;;;;;;;;;;5039828;28;20101;-60
2023/07/06 11:33:10;;;;;;;14.38;2.20;;;;;;;;;;5041286;28;20119;-61
2023/07/06 11:36:16;;;;;;;6.13;1.95;;;;;;;;;;5049580;28;20528;-62
2023/07/06 11:39:02;;;;;;;5.25;2.40;;;;;;;;;;5051775;28;20029;-61
2023/07/06 11:41:54;;;;;;;4.72;2.08;;;;;;;;;;5032753;28;20053;-62
2023/07/06 11:44:31;;;;;;;4.82;1.98;;;;;;;;;;5063246;28;20057;-61
2023/07/06 11:47:21;;;;;;;5.68;2.30;;;;;;;;;;5047506;28;20036;-62
2023/07/06 11:49:50;;;;;;;3.95;2.00;;;;;;;;;;5051533;28;20127;-63
2023/07/06 11:52:21;;;;;;;5.95;2.10;;;;;;;;;;5054903;28;20102;-62
2023/07/06 11:55:15;;;;;;;5.60;2.55;;;;;;;;;;5071097;28;20028;-62
2023/07/06 11:58:04;;;;;;;4.22;1.90;;;;;;;;;;5045765;28;20041;-62
2023/07/06 12:03:04;;;;;;;7.00;2.28;;;;;;;;;;5035682;28;20060;-63
2023/07/06 12:05:39;;;;;;;4.35;2.13;;;;;;;;;;5032228;28;20049;-62
2023/07/06 12:08:28;;;;;;;4.82;1.90;;;;;;;;;;5039948;28;20028;-63
2023/07/06 12:11:20;;;;;;;5.43;2.30;;;;;;;;;;5055012;28;20116;-63
2023/07/06 12:13:52;;;;;;;4.38;1.98;;;;;;;;;;5045395;28;20059;-62
2023/07/06 12:16:20;;;;;;;4.50;2.00;;;;;;;;;;5067761;28;20394;-62
2023/07/06 12:18:53;;;;;;;5.97;1.90;;;;;;;;;;5057806;28;20150;-63
2023/07/06 12:21:31;;;;;;;4.15;2.20;;;;;;;;;;5048559;28;20467;-63
2023/07/06 12:24:06;;;;;;;6.80;2.47;;;;;;;;;;5056762;28;20051;-62
2023/07/06 12:26:34;;;;;;;5.03;2.10;;;;;;;;;;5050349;28;20051;-62
2023/07/06 12:29:02;;;;;;;4.13;1.90;;;;;;;;;;5051296;28;20370;-63
2023/07/06 12:31:30;;;;;;;5.10;2.25;;;;;;;;;;5036443;28;20029;-61
2023/07/06 12:33:58;;;;;;;5.28;2.40;;;;;;;;;;5044868;28;20040;-62
2023/07/06 12:36:29;;;;;;;5.72;2.00;;;;;;;;;;5051681;28;20469;-62
2023/07/06 12:38:56;;;;;;;4.15;1.92;;;;;;;;;;5049922;28;20504;-64
2023/07/06 12:41:22;;;;;;;3.88;2.00;;;;;;;;;;5043298;28;20060;-63
2023/07/06 12:43:51;;;;;;;4.85;2.10;;;;;;;;;;5048888;28;20040;-60
2023/07/06 12:46:23;;;;;;;7.50;2.33;;;;;;;;;;5051567;28;20469;-62
2023/07/06 12:48:53;;;;;;;5.03;2.25;;;;;;;;;;5049606;28;20029;-61
2023/07/06 12:51:23;;;;;;;4.53;2.20;;;;;;;;;;5035749;28;20038;-61
2023/07/06 12:53:50;;;;;;;2.97;1.77;;;;;;;;;;5049153;28;20041;-61
2023/07/06 12:56:19;;;;;;;4.53;2.05;;;;;;;;;;5051310;28;20031;-62
2023/07/06 12:58:53;;;;;;;5.63;1.90;;;;;;;;;;5050181;28;20116;-62
2023/07/06 13:01:20;;;;;;;3.72;1.90;;;;;;;;;;5031452;28;20033;-61
2023/07/06 13:03:56;;;;;;;3.60;2.00;;;;;;;;;;5053194;28;20031;-62
2023/07/06 13:06:24;;;;;;;4.03;1.80;;;;;;;;;;5039952;28;20025;-61
2023/07/06 13:08:55;;;;;;;4.43;2.00;;;;;;;;;;5041633;28;20032;-63
2023/07/06 13:11:24;;;;;;;5.53;1.98;;;;;;;;;;5049775;28;20041;-62
2023/07/06 13:13:53;;;;;;;4.22;1.77;;;;;;;;;;5050202;28;20440;-61
2023/07/06 13:16:20;;;;;;;3.05;1.50;;;;;;;;;;5049138;28;20044;-62
2023/07/06 13:18:46;;;;;;;5.32;2.00;;;;;;;;;;5049926;28;20091;-62
2023/07/06 13:21:19;;;;;;;4.38;2.00;;;;;;;;;;5052282;28;20036;-61
2023/07/06 13:23:45;;;;;;;3.05;1.88;;;;;;;;;;5054065;28;20116;-62
2023/07/06 13:26:11;;;;;;;5.63;2.20;;;;;;;;;;5053560;28;20342;-63
2023/07/06 13:28:38;;;;;;;6.57;2.20;;;;;;;;;;5036636;28;20029;-62
2023/07/06 13:31:04;;;;;;;4.82;2.30;;;;;;;;;;5054545;28;20043;-60
2023/07/06 13:33:29;;;;;;;7.63;2.20;;;;;;;;;;5049801;28;20033;-64
2023/07/06 13:35:56;;;;;;;4.68;2.10;;;;;;;;;;5048081;28;20035;-63
2023/07/06 13:38:21;;;;;;;4.78;2.17;;;;;;;;;;5069611;28;20025;-64
2023/07/06 13:40:50;;;;;;;5.07;2.08;;;;;;;;;;5053845;28;20043;-64
2023/07/06 13:43:18;;;;;;;4.10;2.13;;;;;;;;;;5054194;28;20451;-62
2023/07/06 13:45:44;;;;;;;4.57;1.90;;;;;;;;;;5053837;28;20369;-64
2023/07/06 13:48:12;;;;;;;4.88;2.10;;;;;;;;;;5068519;28;20025;-63
2023/07/06 13:50:39;;;;;;;5.00;2.13;;;;;;;;;;5054243;28;20043;-67
2023/07/06 13:53:07;;;;;;;5.10;2.20;;;;;;;;;;5054236;28;20480;-64
2023/07/06 13:55:38;;;;;;;4.88;2.30;;;;;;;;;;5054194;28;20040;-63
2023/07/06 13:58:06;;;;;;;9.50;2.40;;;;;;;;;;5054157;28;20036;-64
2023/07/06 14:00:32;;;;;;;22.58;3.10;;;;;;;;;;5054316;28;20078;-65
2023/07/06 14:02:57;;;;;;;8.45;2.30;;;;;;;;;;5057031;28;20036;-65
2023/07/06 14:05:26;;;;;;;3.63;2.00;;;;;;;;;;5053782;28;20386;-64
2023/07/06 14:07:51;;;;;;;3.30;1.77;;;;;;;;;;5052509;28;20029;-63
2023/07/06 14:10:18;;;;;;;3.28;1.83;;;;;;;;;;5053551;28;20082;-64
2023/07/06 14:12:49;;;;;;;5.45;1.92;;;;;;;;;;5058001;28;20036;-65
2023/07/06 14:15:20;;;;;;;3.53;1.65;;;;;;;;;;5065144;28;20029;-63
2023/07/06 14:17:46;;;;;;;5.50;1.77;;;;;;;;;;5065599;28;20044;-64
2023/07/06 14:20:14;;;;;;;5.45;2.05;;;;;;;;;;5058699;28;20335;-65
2023/07/06 14:22:40;;;;;;;4.90;2.53;;;;;;;;;;5062857;28;20119;-66
2023/07/06 14:25:23;;;;;;;4.43;1.92;;;;;;;;;;5067460;28;20104;-64
2023/07/06 14:27:50;;;;;;;5.35;2.05;;;;;;;;;;5068311;28;20510;-64
2023/07/06 14:30:17;;;;;;;4.95;1.92;;;;;;;;;;5065573;28;20025;-65
2023/07/06 14:32:45;;;;;;;4.95;1.80;;;;;;;;;;5065519;28;20086;-66
2023/07/06 14:35:12;;;;;;;5.30;2.20;;;;;;;;;;5060342;28;20036;-62
2023/07/06 14:37:38;;;;;;;4.22;1.90;;;;;;;;;;5067300;28;20024;-67
2023/07/06 14:40:06;;;;;;;6.30;2.10;;;;;;;;;;5053652;28;20029;-64
2023/07/06 14:42:31;;;;;;;6.68;2.30;;;;;;;;;;5070780;28;20093;-63
2023/07/06 14:44:57;;;;;;;4.43;1.98;;;;;;;;;;5057354;28;20389;-64
2023/07/06 14:47:22;;;;;;;3.50;1.90;;;;;;;;;;5065246;28;20051;-64
2023/07/06 14:49:49;;;;;;;4.20;1.92;;;;;;;;;;5059022;28;20134;-64
2023/07/06 14:52:15;;;;;;;4.53;1.90;;;;;;;;;;5052336;28;20036;-63
2023/07/06 14:54:41;;;;;;;4.35;2.17;;;;;;;;;;5053044;28;20036;-68
2023/07/06 14:57:06;;;;;;;4.25;2.00;;;;;;;;;;5052750;28;20039;-64
2023/07/06 14:59:32;;;;;;;5.18;1.90;;;;;;;;;;5053437;28;20115;-64